sensor_id;sensor_type;location;lat;lon;timestamp;P1;durP1;ratioP1;P2;durP2;ratioP2
62435;SDS011;48480;50.252;18.848;2024-03-02T00:01:25;56.70;;;35.90;;
62435;SDS011;48480;50.252;18.848;2024-03-02T00:04:09;58.00;;;33.10;;
62435;SDS011;48480;50.252;18.848;2024-03-02T00:06:54;53.20;;;31.00;;
62435;SDS011;48480;50.252;18.848;2024-03-02T00:09:39;57.90;;;34.50;;
62435;SDS011;48480;50.252;18.848;2024-03-02T00:12:23;54.30;;;31.10;;
62435;SDS011;48480;50.252;18.848;2024-03-02T00:18:27;54.40;;;36.20;;
62435;SDS011;48480;50.252;18.848;2024-03-02T00:21:14;57.20;;;37.40;;
62435;SDS011;48480;50.252;18.848;2024-03-02T00:24:00;54.20;;;33.50;;
62435;SDS011;48480;50.252;18.848;2024-03-02T00:26:51;58.20;;;32.10;;
62435;SDS011;48480;50.252;18.848;2024-03-02T00:29:35;50.30;;;31.50;;
62435;SDS011;48480;50.252;18.848;2024-03-02T00:32:19;53.70;;;32.50;;
62435;SDS011;48480;50.252;18.848;2024-03-02T00:35:04;57.40;;;38.50;;
62435;SDS011;48480;50.252;18.848;2024-03-02T00:37:48;52.50;;;35.30;;
62435;SDS011;48480;50.252;18.848;2024-03-02T00:40:32;53.30;;;33.30;;
62435;SDS011;48480;50.252;18.848;2024-03-02T00:46:04;48.60;;;31.70;;
62435;SDS011;48480;50.252;18.848;2024-03-02T00:48:48;45.20;;;29.90;;
62435;SDS011;48480;50.252;18.848;2024-03-02T00:51:37;51.50;;;34.20;;
62435;SDS011;48480;50.252;18.848;2024-03-02T00:54:25;53.90;;;32.00;;
62435;SDS011;48480;50.252;18.848;2024-03-02T00:57:10;50.00;;;33.20;;
62435;SDS011;48480;50.252;18.848;2024-03-02T00:59:56;56.60;;;34.60;;
62435;SDS011;48480;50.252;18.848;2024-03-02T01:02:40;49.30;;;30.10;;
62435;SDS011;48480;50.252;18.848;2024-03-02T01:05:25;40.50;;;25.70;;
62435;SDS011;48480;50.252;18.848;2024-03-02T01:08:10;38.40;;;21.30;;
62435;SDS011;48480;50.252;18.848;2024-03-02T01:10:54;36.70;;;24.40;;
62435;SDS011;48480;50.252;18.848;2024-03-02T01:13:38;37.90;;;23.20;;
62435;SDS011;48480;50.252;18.848;2024-03-02T01:16:22;35.90;;;23.70;;
62435;SDS011;48480;50.252;18.848;2024-03-02T01:19:06;37.20;;;23.00;;
62435;SDS011;48480;50.252;18.848;2024-03-02T01:21:50;41.80;;;26.20;;
62435;SDS011;48480;50.252;18.848;2024-03-02T01:24:34;43.10;;;26.00;;
62435;SDS011;48480;50.252;18.848;2024-03-02T01:27:18;37.10;;;23.80;;
62435;SDS011;48480;50.252;18.848;2024-03-02T01:30:02;45.40;;;30.50;;
62435;SDS011;48480;50.252;18.848;2024-03-02T01:32:47;38.90;;;23.20;;
62435;SDS011;48480;50.252;18.848;2024-03-02T01:35:31;43.70;;;24.00;;
62435;SDS011;48480;50.252;18.848;2024-03-02T01:38:15;43.50;;;27.10;;
62435;SDS011;48480;50.252;18.848;2024-03-02T01:41:00;40.80;;;25.30;;
62435;SDS011;48480;50.252;18.848;2024-03-02T01:43:44;38.70;;;22.60;;
62435;SDS011;48480;50.252;18.848;2024-03-02T01:46:28;44.60;;;24.80;;
62435;SDS011;48480;50.252;18.848;2024-03-02T01:49:12;40.70;;;24.90;;
62435;SDS011;48480;50.252;18.848;2024-03-02T01:51:57;42.10;;;25.60;;
62435;SDS011;48480;50.252;18.848;2024-03-02T01:54:42;41.10;;;24.10;;
62435;SDS011;48480;50.252;18.848;2024-03-02T01:57:25;38.00;;;24.50;;
62435;SDS011;48480;50.252;18.848;2024-03-02T02:00:09;40.50;;;24.40;;
62435;SDS011;48480;50.252;18.848;2024-03-02T02:02:54;42.40;;;24.50;;
62435;SDS011;48480;50.252;18.848;2024-03-02T02:05:38;39.80;;;23.80;;
62435;SDS011;48480;50.252;18.848;2024-03-02T02:08:22;41.60;;;23.60;;
62435;SDS011;48480;50.252;18.848;2024-03-02T02:11:06;39.10;;;25.80;;
62435;SDS011;48480;50.252;18.848;2024-03-02T02:13:50;36.30;;;24.30;;
62435;SDS011;48480;50.252;18.848;2024-03-02T02:16:34;50.30;;;28.70;;
62435;SDS011;48480;50.252;18.848;2024-03-02T02:19:17;44.00;;;26.20;;
62435;SDS011;48480;50.252;18.848;2024-03-02T02:22:01;44.70;;;27.20;;
62435;SDS011;48480;50.252;18.848;2024-03-02T02:24:45;35.00;;;23.20;;
62435;SDS011;48480;50.252;18.848;2024-03-02T02:27:29;37.10;;;22.00;;
62435;SDS011;48480;50.252;18.848;2024-03-02T02:30:17;36.00;;;21.10;;
62435;SDS011;48480;50.252;18.848;2024-03-02T02:33:05;32.70;;;21.90;;
62435;SDS011;48480;50.252;18.848;2024-03-02T02:35:49;36.70;;;22.10;;
62435;SDS011;48480;50.252;18.848;2024-03-02T02:38:33;37.50;;;23.10;;
62435;SDS011;48480;50.252;18.848;2024-03-02T02:41:23;37.20;;;22.50;;
62435;SDS011;48480;50.252;18.848;2024-03-02T02:44:07;37.10;;;23.90;;
62435;SDS011;48480;50.252;18.848;2024-03-02T02:46:51;28.70;;;18.80;;
62435;SDS011;48480;50.252;18.848;2024-03-02T02:49:35;30.40;;;20.70;;
62435;SDS011;48480;50.252;18.848;2024-03-02T02:52:20;33.60;;;20.20;;
62435;SDS011;48480;50.252;18.848;2024-03-02T02:55:05;41.60;;;25.50;;
62435;SDS011;48480;50.252;18.848;2024-03-02T02:57:50;42.80;;;25.40;;
62435;SDS011;48480;50.252;18.848;2024-03-02T03:00:34;39.20;;;24.40;;
62435;SDS011;48480;50.252;18.848;2024-03-02T03:03:20;41.00;;;26.40;;
62435;SDS011;48480;50.252;18.848;2024-03-02T03:06:03;39.50;;;25.90;;
62435;SDS011;48480;50.252;18.848;2024-03-02T03:08:47;42.30;;;25.60;;
62435;SDS011;48480;50.252;18.848;2024-03-02T03:11:31;36.70;;;22.70;;
62435;SDS011;48480;50.252;18.848;2024-03-02T03:14:15;35.20;;;23.30;;
62435;SDS011;48480;50.252;18.848;2024-03-02T03:16:59;46.20;;;26.00;;
62435;SDS011;48480;50.252;18.848;2024-03-02T03:19:43;38.70;;;24.80;;
62435;SDS011;48480;50.252;18.848;2024-03-02T03:22:26;35.30;;;23.20;;
62435;SDS011;48480;50.252;18.848;2024-03-02T03:25:10;39.60;;;24.60;;
62435;SDS011;48480;50.252;18.848;2024-03-02T03:27:54;38.30;;;25.70;;
62435;SDS011;48480;50.252;18.848;2024-03-02T03:30:38;33.80;;;23.10;;
62435;SDS011;48480;50.252;18.848;2024-03-02T03:33:22;33.30;;;22.90;;
62435;SDS011;48480;50.252;18.848;2024-03-02T03:36:06;33.10;;;20.00;;
62435;SDS011;48480;50.252;18.848;2024-03-02T03:38:50;31.80;;;20.60;;
62435;SDS011;48480;50.252;18.848;2024-03-02T03:41:34;31.20;;;20.00;;
62435;SDS011;48480;50.252;18.848;2024-03-02T03:44:18;35.30;;;21.60;;
62435;SDS011;48480;50.252;18.848;2024-03-02T03:47:02;34.00;;;23.10;;
62435;SDS011;48480;50.252;18.848;2024-03-02T03:49:46;37.70;;;24.40;;
62435;SDS011;48480;50.252;18.848;2024-03-02T03:52:30;39.00;;;24.70;;
62435;SDS011;48480;50.252;18.848;2024-03-02T03:55:14;37.40;;;24.70;;
62435;SDS011;48480;50.252;18.848;2024-03-02T03:57:58;37.30;;;23.90;;
62435;SDS011;48480;50.252;18.848;2024-03-02T04:00:42;34.50;;;21.70;;
62435;SDS011;48480;50.252;18.848;2024-03-02T04:03:26;35.40;;;21.40;;
62435;SDS011;48480;50.252;18.848;2024-03-02T04:06:10;28.80;;;19.20;;
62435;SDS011;48480;50.252;18.848;2024-03-02T04:08:54;32.00;;;19.40;;
62435;SDS011;48480;50.252;18.848;2024-03-02T04:11:38;37.80;;;22.50;;
62435;SDS011;48480;50.252;18.848;2024-03-02T04:14:22;35.20;;;22.00;;
62435;SDS011;48480;50.252;18.848;2024-03-02T04:17:05;37.90;;;23.20;;
62435;SDS011;48480;50.252;18.848;2024-03-02T04:19:50;37.30;;;24.40;;
62435;SDS011;48480;50.252;18.848;2024-03-02T04:22:34;33.60;;;21.70;;
62435;SDS011;48480;50.252;18.848;2024-03-02T04:25:19;35.50;;;22.80;;
62435;SDS011;48480;50.252;18.848;2024-03-02T04:28:03;37.10;;;21.80;;
62435;SDS011;48480;50.252;18.848;2024-03-02T04:30:47;34.80;;;22.50;;
62435;SDS011;48480;50.252;18.848;2024-03-02T04:33:31;34.40;;;24.00;;
62435;SDS011;48480;50.252;18.848;2024-03-02T04:36:16;36.00;;;23.10;;
62435;SDS011;48480;50.252;18.848;2024-03-02T04:39:00;37.60;;;25.00;;
62435;SDS011;48480;50.252;18.848;2024-03-02T04:41:44;41.90;;;26.10;;
62435;SDS011;48480;50.252;18.848;2024-03-02T04:44:28;33.60;;;23.50;;
62435;SDS011;48480;50.252;18.848;2024-03-02T04:47:12;35.30;;;24.10;;
62435;SDS011;48480;50.252;18.848;2024-03-02T04:49:56;39.60;;;25.10;;
62435;SDS011;48480;50.252;18.848;2024-03-02T04:52:39;36.20;;;24.10;;
62435;SDS011;48480;50.252;18.848;2024-03-02T04:55:23;35.30;;;22.60;;
62435;SDS011;48480;50.252;18.848;2024-03-02T04:58:22;37.00;;;24.10;;
62435;SDS011;48480;50.252;18.848;2024-03-02T05:01:06;38.10;;;25.60;;
62435;SDS011;48480;50.252;18.848;2024-03-02T05:03:50;39.10;;;24.60;;
62435;SDS011;48480;50.252;18.848;2024-03-02T05:06:34;39.20;;;25.90;;
62435;SDS011;48480;50.252;18.848;2024-03-02T05:09:19;38.60;;;25.90;;
62435;SDS011;48480;50.252;18.848;2024-03-02T05:12:02;40.40;;;26.30;;
62435;SDS011;48480;50.252;18.848;2024-03-02T05:14:53;40.70;;;26.40;;
62435;SDS011;48480;50.252;18.848;2024-03-02T05:17:37;36.90;;;23.50;;
62435;SDS011;48480;50.252;18.848;2024-03-02T05:20:22;40.60;;;24.30;;
62435;SDS011;48480;50.252;18.848;2024-03-02T05:23:06;37.60;;;24.80;;
62435;SDS011;48480;50.252;18.848;2024-03-02T05:25:50;40.50;;;26.60;;
62435;SDS011;48480;50.252;18.848;2024-03-02T05:28:36;45.20;;;27.80;;
62435;SDS011;48480;50.252;18.848;2024-03-02T05:31:20;41.20;;;27.30;;
62435;SDS011;48480;50.252;18.848;2024-03-02T05:34:04;44.40;;;27.40;;
62435;SDS011;48480;50.252;18.848;2024-03-02T05:36:48;42.60;;;27.00;;
62435;SDS011;48480;50.252;18.848;2024-03-02T05:39:32;39.50;;;24.90;;
62435;SDS011;48480;50.252;18.848;2024-03-02T05:42:16;40.10;;;25.00;;
62435;SDS011;48480;50.252;18.848;2024-03-02T05:45:02;44.10;;;26.30;;
62435;SDS011;48480;50.252;18.848;2024-03-02T05:47:46;36.30;;;23.90;;
62435;SDS011;48480;50.252;18.848;2024-03-02T05:50:30;41.90;;;26.00;;
62435;SDS011;48480;50.252;18.848;2024-03-02T05:53:14;39.00;;;25.10;;
62435;SDS011;48480;50.252;18.848;2024-03-02T05:55:59;41.90;;;26.50;;
62435;SDS011;48480;50.252;18.848;2024-03-02T05:58:43;41.70;;;26.60;;
62435;SDS011;48480;50.252;18.848;2024-03-02T06:01:46;42.70;;;25.60;;
62435;SDS011;48480;50.252;18.848;2024-03-02T06:04:30;36.80;;;23.50;;
62435;SDS011;48480;50.252;18.848;2024-03-02T06:07:14;35.70;;;21.60;;
62435;SDS011;48480;50.252;18.848;2024-03-02T06:09:58;39.20;;;23.40;;
62435;SDS011;48480;50.252;18.848;2024-03-02T06:12:42;36.30;;;22.90;;
62435;SDS011;48480;50.252;18.848;2024-03-02T06:15:26;35.60;;;23.20;;
62435;SDS011;48480;50.252;18.848;2024-03-02T06:18:10;38.30;;;25.10;;
62435;SDS011;48480;50.252;18.848;2024-03-02T06:20:54;34.90;;;22.70;;
62435;SDS011;48480;50.252;18.848;2024-03-02T06:23:38;35.30;;;22.90;;
62435;SDS011;48480;50.252;18.848;2024-03-02T06:26:22;36.90;;;24.30;;
62435;SDS011;48480;50.252;18.848;2024-03-02T06:29:06;37.40;;;22.30;;
62435;SDS011;48480;50.252;18.848;2024-03-02T06:31:51;42.70;;;24.20;;
62435;SDS011;48480;50.252;18.848;2024-03-02T06:34:36;33.60;;;22.50;;
62435;SDS011;48480;50.252;18.848;2024-03-02T06:37:20;35.90;;;23.10;;
62435;SDS011;48480;50.252;18.848;2024-03-02T06:40:04;34.70;;;24.40;;
62435;SDS011;48480;50.252;18.848;2024-03-02T06:42:51;39.90;;;24.90;;
62435;SDS011;48480;50.252;18.848;2024-03-02T06:45:35;39.90;;;27.40;;
62435;SDS011;48480;50.252;18.848;2024-03-02T06:48:19;39.80;;;24.30;;
62435;SDS011;48480;50.252;18.848;2024-03-02T06:51:06;35.70;;;25.00;;
62435;SDS011;48480;50.252;18.848;2024-03-02T06:53:50;38.70;;;25.30;;
62435;SDS011;48480;50.252;18.848;2024-03-02T06:56:35;42.20;;;28.90;;
62435;SDS011;48480;50.252;18.848;2024-03-02T06:59:19;41.20;;;26.20;;
62435;SDS011;48480;50.252;18.848;2024-03-02T07:02:03;38.60;;;24.50;;
62435;SDS011;48480;50.252;18.848;2024-03-02T07:04:48;37.50;;;23.50;;
62435;SDS011;48480;50.252;18.848;2024-03-02T07:07:32;39.40;;;22.70;;
62435;SDS011;48480;50.252;18.848;2024-03-02T07:10:16;40.70;;;25.70;;
62435;SDS011;48480;50.252;18.848;2024-03-02T07:13:01;38.70;;;26.00;;
62435;SDS011;48480;50.252;18.848;2024-03-02T07:15:45;44.10;;;26.80;;
62435;SDS011;48480;50.252;18.848;2024-03-02T07:18:55;41.60;;;25.80;;
62435;SDS011;48480;50.252;18.848;2024-03-02T07:21:40;39.00;;;26.40;;
62435;SDS011;48480;50.252;18.848;2024-03-02T07:24:29;41.90;;;26.30;;
62435;SDS011;48480;50.252;18.848;2024-03-02T07:27:13;43.00;;;24.40;;
62435;SDS011;48480;50.252;18.848;2024-03-02T07:29:58;44.10;;;27.80;;
62435;SDS011;48480;50.252;18.848;2024-03-02T07:32:42;40.10;;;25.20;;
62435;SDS011;48480;50.252;18.848;2024-03-02T07:35:29;39.60;;;26.30;;
62435;SDS011;48480;50.252;18.848;2024-03-02T07:38:15;37.20;;;25.10;;
62435;SDS011;48480;50.252;18.848;2024-03-02T07:40:59;41.50;;;26.50;;
62435;SDS011;48480;50.252;18.848;2024-03-02T07:43:44;42.10;;;28.10;;
62435;SDS011;48480;50.252;18.848;2024-03-02T07:46:28;42.90;;;26.40;;
62435;SDS011;48480;50.252;18.848;2024-03-02T07:49:13;37.70;;;26.40;;
62435;SDS011;48480;50.252;18.848;2024-03-02T07:51:58;34.50;;;22.90;;
62435;SDS011;48480;50.252;18.848;2024-03-02T07:54:42;45.70;;;27.20;;
62435;SDS011;48480;50.252;18.848;2024-03-02T07:57:26;42.00;;;26.10;;
62435;SDS011;48480;50.252;18.848;2024-03-02T08:00:10;44.30;;;32.70;;
62435;SDS011;48480;50.252;18.848;2024-03-02T08:02:55;40.10;;;25.00;;
62435;SDS011;48480;50.252;18.848;2024-03-02T08:05:39;37.30;;;25.40;;
62435;SDS011;48480;50.252;18.848;2024-03-02T08:08:24;41.40;;;27.00;;
62435;SDS011;48480;50.252;18.848;2024-03-02T08:11:08;43.10;;;27.00;;
62435;SDS011;48480;50.252;18.848;2024-03-02T08:13:51;38.30;;;25.90;;
62435;SDS011;48480;50.252;18.848;2024-03-02T08:16:37;42.60;;;25.90;;
62435;SDS011;48480;50.252;18.848;2024-03-02T08:19:25;36.60;;;23.00;;
62435;SDS011;48480;50.252;18.848;2024-03-02T08:22:09;37.10;;;23.80;;
62435;SDS011;48480;50.252;18.848;2024-03-02T08:24:54;37.80;;;26.30;;
62435;SDS011;48480;50.252;18.848;2024-03-02T08:27:39;37.70;;;25.90;;
62435;SDS011;48480;50.252;18.848;2024-03-02T08:30:24;37.30;;;25.70;;
62435;SDS011;48480;50.252;18.848;2024-03-02T08:33:08;37.30;;;22.50;;
62435;SDS011;48480;50.252;18.848;2024-03-02T08:35:52;41.50;;;25.30;;
62435;SDS011;48480;50.252;18.848;2024-03-02T08:38:36;35.70;;;23.60;;
62435;SDS011;48480;50.252;18.848;2024-03-02T08:41:20;32.80;;;20.30;;
62435;SDS011;48480;50.252;18.848;2024-03-02T08:44:04;39.40;;;25.10;;
62435;SDS011;48480;50.252;18.848;2024-03-02T08:46:50;37.00;;;23.40;;
62435;SDS011;48480;50.252;18.848;2024-03-02T08:49:35;36.50;;;23.70;;
62435;SDS011;48480;50.252;18.848;2024-03-02T08:52:19;33.90;;;23.10;;
62435;SDS011;48480;50.252;18.848;2024-03-02T08:55:03;34.90;;;23.80;;
62435;SDS011;48480;50.252;18.848;2024-03-02T08:57:48;37.00;;;25.20;;
62435;SDS011;48480;50.252;18.848;2024-03-02T09:00:34;31.50;;;20.90;;
62435;SDS011;48480;50.252;18.848;2024-03-02T09:03:18;32.60;;;20.30;;
62435;SDS011;48480;50.252;18.848;2024-03-02T09:06:03;32.50;;;22.30;;
62435;SDS011;48480;50.252;18.848;2024-03-02T09:08:48;36.00;;;24.20;;
62435;SDS011;48480;50.252;18.848;2024-03-02T09:11:33;36.70;;;23.30;;
62435;SDS011;48480;50.252;18.848;2024-03-02T09:14:17;39.90;;;26.50;;
62435;SDS011;48480;50.252;18.848;2024-03-02T09:17:02;40.80;;;26.80;;
62435;SDS011;48480;50.252;18.848;2024-03-02T09:19:47;35.20;;;24.40;;
62435;SDS011;48480;50.252;18.848;2024-03-02T09:22:31;39.20;;;24.90;;
62435;SDS011;48480;50.252;18.848;2024-03-02T09:25:15;33.10;;;23.10;;
62435;SDS011;48480;50.252;18.848;2024-03-02T09:28:00;36.40;;;22.70;;
62435;SDS011;48480;50.252;18.848;2024-03-02T09:30:44;33.70;;;23.00;;
62435;SDS011;48480;50.252;18.848;2024-03-02T09:33:28;35.90;;;23.30;;
62435;SDS011;48480;50.252;18.848;2024-03-02T09:36:18;34.10;;;23.60;;
62435;SDS011;48480;50.252;18.848;2024-03-02T09:39:03;38.10;;;23.90;;
62435;SDS011;48480;50.252;18.848;2024-03-02T09:41:47;34.30;;;23.40;;
62435;SDS011;48480;50.252;18.848;2024-03-02T09:44:32;36.20;;;24.60;;
62435;SDS011;48480;50.252;18.848;2024-03-02T09:47:17;38.00;;;25.10;;
62435;SDS011;48480;50.252;18.848;2024-03-02T09:50:02;36.50;;;22.40;;
62435;SDS011;48480;50.252;18.848;2024-03-02T09:52:49;32.60;;;22.10;;
62435;SDS011;48480;50.252;18.848;2024-03-02T09:55:36;30.60;;;21.90;;
62435;SDS011;48480;50.252;18.848;2024-03-02T09:58:20;32.10;;;22.80;;
62435;SDS011;48480;50.252;18.848;2024-03-02T10:01:07;31.60;;;20.20;;
62435;SDS011;48480;50.252;18.848;2024-03-02T10:03:53;34.20;;;22.40;;
62435;SDS011;48480;50.252;18.848;2024-03-02T10:06:39;45.80;;;37.10;;
62435;SDS011;48480;50.252;18.848;2024-03-02T10:09:27;42.20;;;31.40;;
62435;SDS011;48480;50.252;18.848;2024-03-02T10:12:13;31.90;;;20.60;;
62435;SDS011;48480;50.252;18.848;2024-03-02T10:15:07;30.90;;;19.80;;
62435;SDS011;48480;50.252;18.848;2024-03-02T10:17:53;35.30;;;20.30;;
62435;SDS011;48480;50.252;18.848;2024-03-02T10:20:37;28.20;;;19.00;;
62435;SDS011;48480;50.252;18.848;2024-03-02T10:23:23;34.90;;;23.20;;
62435;SDS011;48480;50.252;18.848;2024-03-02T10:26:16;30.40;;;21.40;;
62435;SDS011;48480;50.252;18.848;2024-03-02T10:29:04;35.20;;;22.10;;
62435;SDS011;48480;50.252;18.848;2024-03-02T10:31:48;29.20;;;21.10;;
62435;SDS011;48480;50.252;18.848;2024-03-02T10:34:40;32.80;;;21.90;;
62435;SDS011;48480;50.252;18.848;2024-03-02T10:40:06;32.20;;;20.00;;
62435;SDS011;48480;50.252;18.848;2024-03-02T10:42:51;27.90;;;20.50;;
62435;SDS011;48480;50.252;18.848;2024-03-02T10:45:36;33.60;;;20.60;;
62435;SDS011;48480;50.252;18.848;2024-03-02T10:48:20;30.70;;;20.80;;
62435;SDS011;48480;50.252;18.848;2024-03-02T10:51:05;28.90;;;20.30;;
62435;SDS011;48480;50.252;18.848;2024-03-02T10:53:49;34.50;;;20.10;;
62435;SDS011;48480;50.252;18.848;2024-03-02T10:56:34;30.00;;;19.60;;
62435;SDS011;48480;50.252;18.848;2024-03-02T11:02:15;31.60;;;18.90;;
62435;SDS011;48480;50.252;18.848;2024-03-02T11:05:01;27.50;;;19.00;;
62435;SDS011;48480;50.252;18.848;2024-03-02T11:07:53;26.90;;;18.70;;
62435;SDS011;48480;50.252;18.848;2024-03-02T11:13:42;30.50;;;17.90;;
62435;SDS011;48480;50.252;18.848;2024-03-02T11:16:36;27.10;;;18.80;;
62435;SDS011;48480;50.252;18.848;2024-03-02T11:19:22;30.10;;;18.70;;
62435;SDS011;48480;50.252;18.848;2024-03-02T11:22:08;29.10;;;18.80;;
62435;SDS011;48480;50.252;18.848;2024-03-02T11:24:53;28.70;;;18.40;;
62435;SDS011;48480;50.252;18.848;2024-03-02T11:33:15;32.10;;;18.90;;
62435;SDS011;48480;50.252;18.848;2024-03-02T11:36:07;29.00;;;18.00;;
62435;SDS011;48480;50.252;18.848;2024-03-02T11:38:52;24.20;;;16.40;;
62435;SDS011;48480;50.252;18.848;2024-03-02T11:41:37;25.90;;;16.40;;
62435;SDS011;48480;50.252;18.848;2024-03-02T11:44:27;26.00;;;16.80;;
62435;SDS011;48480;50.252;18.848;2024-03-02T11:47:13;26.50;;;16.90;;
62435;SDS011;48480;50.252;18.848;2024-03-02T11:50:01;24.00;;;16.00;;
62435;SDS011;48480;50.252;18.848;2024-03-02T11:52:45;22.80;;;16.10;;
62435;SDS011;48480;50.252;18.848;2024-03-02T11:55:30;28.30;;;16.30;;
62435;SDS011;48480;50.252;18.848;2024-03-02T11:58:15;27.70;;;16.60;;
62435;SDS011;48480;50.252;18.848;2024-03-02T12:01:01;25.80;;;17.40;;
62435;SDS011;48480;50.252;18.848;2024-03-02T12:03:46;27.30;;;16.80;;
62435;SDS011;48480;50.252;18.848;2024-03-02T12:06:33;26.60;;;16.30;;
62435;SDS011;48480;50.252;18.848;2024-03-02T12:09:17;24.10;;;15.60;;
62435;SDS011;48480;50.252;18.848;2024-03-02T12:12:02;24.70;;;15.30;;
62435;SDS011;48480;50.252;18.848;2024-03-02T12:14:51;22.00;;;15.10;;
62435;SDS011;48480;50.252;18.848;2024-03-02T12:17:39;22.90;;;15.80;;
62435;SDS011;48480;50.252;18.848;2024-03-02T12:20:32;23.90;;;15.90;;
62435;SDS011;48480;50.252;18.848;2024-03-02T12:23:18;21.90;;;15.20;;
62435;SDS011;48480;50.252;18.848;2024-03-02T12:26:04;25.30;;;16.00;;
62435;SDS011;48480;50.252;18.848;2024-03-02T12:28:50;24.10;;;16.40;;
62435;SDS011;48480;50.252;18.848;2024-03-02T12:31:35;23.70;;;16.80;;
62435;SDS011;48480;50.252;18.848;2024-03-02T12:34:21;22.50;;;16.90;;
62435;SDS011;48480;50.252;18.848;2024-03-02T12:37:04;23.60;;;14.70;;
62435;SDS011;48480;50.252;18.848;2024-03-02T12:39:49;27.00;;;17.80;;
62435;SDS011;48480;50.252;18.848;2024-03-02T12:42:33;24.90;;;15.40;;
62435;SDS011;48480;50.252;18.848;2024-03-02T12:45:21;24.40;;;15.90;;
62435;SDS011;48480;50.252;18.848;2024-03-02T12:48:09;26.80;;;15.20;;
62435;SDS011;48480;50.252;18.848;2024-03-02T12:50:57;25.20;;;15.50;;
62435;SDS011;48480;50.252;18.848;2024-03-02T12:53:41;22.50;;;15.40;;
62435;SDS011;48480;50.252;18.848;2024-03-02T12:56:27;22.30;;;14.50;;
62435;SDS011;48480;50.252;18.848;2024-03-02T13:04:52;20.70;;;15.10;;
62435;SDS011;48480;50.252;18.848;2024-03-02T13:07:40;19.90;;;14.40;;
62435;SDS011;48480;50.252;18.848;2024-03-02T13:10:27;21.80;;;14.80;;
62435;SDS011;48480;50.252;18.848;2024-03-02T13:13:11;25.10;;;16.10;;
62435;SDS011;48480;50.252;18.848;2024-03-02T13:15:55;25.40;;;16.20;;
62435;SDS011;48480;50.252;18.848;2024-03-02T13:18:40;24.10;;;15.10;;
62435;SDS011;48480;50.252;18.848;2024-03-02T13:21:24;24.10;;;16.10;;
62435;SDS011;48480;50.252;18.848;2024-03-02T13:24:08;21.70;;;15.90;;
62435;SDS011;48480;50.252;18.848;2024-03-02T13:26:52;24.40;;;17.00;;
62435;SDS011;48480;50.252;18.848;2024-03-02T13:29:39;24.30;;;16.10;;
62435;SDS011;48480;50.252;18.848;2024-03-02T13:32:24;25.00;;;15.90;;
62435;SDS011;48480;50.252;18.848;2024-03-02T13:35:09;21.40;;;14.30;;
62435;SDS011;48480;50.252;18.848;2024-03-02T13:37:54;23.00;;;15.00;;
62435;SDS011;48480;50.252;18.848;2024-03-02T13:40:39;23.30;;;14.30;;
62435;SDS011;48480;50.252;18.848;2024-03-02T13:43:25;21.20;;;14.80;;
62435;SDS011;48480;50.252;18.848;2024-03-02T13:48:45;24.90;;;17.60;;
62435;SDS011;48480;50.252;18.848;2024-03-02T13:51:29;24.20;;;17.80;;
62435;SDS011;48480;50.252;18.848;2024-03-02T13:54:13;25.50;;;17.70;;
62435;SDS011;48480;50.252;18.848;2024-03-02T13:57:01;24.20;;;16.20;;
62435;SDS011;48480;50.252;18.848;2024-03-02T13:59:46;27.80;;;17.80;;
62435;SDS011;48480;50.252;18.848;2024-03-02T14:02:30;27.30;;;18.00;;
62435;SDS011;48480;50.252;18.848;2024-03-02T14:05:15;24.90;;;17.60;;
62435;SDS011;48480;50.252;18.848;2024-03-02T14:08:00;24.70;;;18.30;;
62435;SDS011;48480;50.252;18.848;2024-03-02T14:10:44;24.00;;;17.70;;
62435;SDS011;48480;50.252;18.848;2024-03-02T14:13:28;25.70;;;18.20;;
62435;SDS011;48480;50.252;18.848;2024-03-02T14:16:12;26.10;;;17.20;;
62435;SDS011;48480;50.252;18.848;2024-03-02T14:18:56;24.20;;;18.20;;
62435;SDS011;48480;50.252;18.848;2024-03-02T14:21:42;29.40;;;19.60;;
62435;SDS011;48480;50.252;18.848;2024-03-02T14:24:26;30.60;;;21.10;;
62435;SDS011;48480;50.252;18.848;2024-03-02T14:27:11;31.20;;;21.70;;
62435;SDS011;48480;50.252;18.848;2024-03-02T14:29:58;31.40;;;22.90;;
62435;SDS011;48480;50.252;18.848;2024-03-02T14:32:42;37.10;;;24.50;;
62435;SDS011;48480;50.252;18.848;2024-03-02T14:35:26;40.00;;;27.30;;
62435;SDS011;48480;50.252;18.848;2024-03-02T14:38:12;40.20;;;28.60;;
62435;SDS011;48480;50.252;18.848;2024-03-02T14:40:56;40.70;;;26.40;;
62435;SDS011;48480;50.252;18.848;2024-03-02T14:43:41;33.00;;;24.70;;
62435;SDS011;48480;50.252;18.848;2024-03-02T14:46:25;32.20;;;22.70;;
62435;SDS011;48480;50.252;18.848;2024-03-02T14:49:09;32.60;;;23.00;;
62435;SDS011;48480;50.252;18.848;2024-03-02T14:51:57;31.70;;;23.00;;
62435;SDS011;48480;50.252;18.848;2024-03-02T14:54:42;36.40;;;25.10;;
62435;SDS011;48480;50.252;18.848;2024-03-02T14:57:26;38.00;;;24.10;;
62435;SDS011;48480;50.252;18.848;2024-03-02T15:00:10;35.30;;;25.20;;
62435;SDS011;48480;50.252;18.848;2024-03-02T15:02:55;33.00;;;23.10;;
62435;SDS011;48480;50.252;18.848;2024-03-02T15:05:39;32.90;;;24.30;;
62435;SDS011;48480;50.252;18.848;2024-03-02T15:08:23;32.00;;;23.40;;
62435;SDS011;48480;50.252;18.848;2024-03-02T15:11:07;33.70;;;23.40;;
62435;SDS011;48480;50.252;18.848;2024-03-02T15:13:52;34.50;;;24.40;;
62435;SDS011;48480;50.252;18.848;2024-03-02T15:16:37;36.30;;;26.00;;
62435;SDS011;48480;50.252;18.848;2024-03-02T15:19:21;36.80;;;27.00;;
62435;SDS011;48480;50.252;18.848;2024-03-02T15:22:05;38.50;;;26.40;;
62435;SDS011;48480;50.252;18.848;2024-03-02T15:24:49;36.10;;;25.30;;
62435;SDS011;48480;50.252;18.848;2024-03-02T15:27:34;36.20;;;25.10;;
62435;SDS011;48480;50.252;18.848;2024-03-02T15:30:19;36.60;;;26.70;;
62435;SDS011;48480;50.252;18.848;2024-03-02T15:33:03;40.00;;;28.20;;
62435;SDS011;48480;50.252;18.848;2024-03-02T15:35:47;40.30;;;27.80;;
62435;SDS011;48480;50.252;18.848;2024-03-02T15:38:31;37.60;;;27.00;;
62435;SDS011;48480;50.252;18.848;2024-03-02T15:41:16;37.30;;;25.80;;
62435;SDS011;48480;50.252;18.848;2024-03-02T15:44:01;40.30;;;27.00;;
62435;SDS011;48480;50.252;18.848;2024-03-02T15:46:48;38.20;;;25.20;;
62435;SDS011;48480;50.252;18.848;2024-03-02T15:49:38;33.30;;;24.10;;
62435;SDS011;48480;50.252;18.848;2024-03-02T15:52:23;35.40;;;23.80;;
62435;SDS011;48480;50.252;18.848;2024-03-02T15:55:07;32.40;;;21.30;;
62435;SDS011;48480;50.252;18.848;2024-03-02T15:57:58;30.90;;;21.70;;
62435;SDS011;48480;50.252;18.848;2024-03-02T16:00:50;30.30;;;20.90;;
62435;SDS011;48480;50.252;18.848;2024-03-02T16:03:48;30.50;;;21.40;;
62435;SDS011;48480;50.252;18.848;2024-03-02T16:06:32;36.80;;;25.50;;
62435;SDS011;48480;50.252;18.848;2024-03-02T16:09:16;34.20;;;24.50;;
62435;SDS011;48480;50.252;18.848;2024-03-02T16:12:00;33.50;;;21.90;;
62435;SDS011;48480;50.252;18.848;2024-03-02T16:14:44;32.90;;;24.20;;
62435;SDS011;48480;50.252;18.848;2024-03-02T16:17:29;33.70;;;22.40;;
62435;SDS011;48480;50.252;18.848;2024-03-02T16:20:13;29.00;;;20.90;;